createdAt,value
2018-05-08T00:00:14.726Z,14.7
2018-05-08T00:01:34.570Z,14.8
2018-05-08T00:02:54.430Z,14.8
2018-05-08T00:04:16.788Z,14.9
2018-05-08T00:05:39.184Z,14.7
2018-05-08T00:07:01.606Z,14.7
2018-05-08T00:08:21.436Z,14.7
2018-05-08T00:09:41.289Z,14.7
2018-05-08T00:11:01.141Z,14.6
2018-05-08T00:12:21.051Z,14.6
2018-05-08T00:13:45.953Z,14.8
2018-05-08T00:15:10.858Z,14.7
2018-05-08T00:16:30.765Z,14.7
2018-05-08T00:17:55.665Z,14.5
2018-05-08T00:19:15.546Z,14.5
2018-05-08T00:20:35.440Z,14.6
2018-05-08T00:21:57.797Z,14.7
2018-05-08T00:23:17.652Z,14.6
2018-05-08T00:24:40.010Z,14.6
2018-05-08T00:25:59.832Z,14.6
2018-05-08T00:27:24.741Z,14.5
2018-05-08T00:28:44.563Z,14.5
2018-05-08T00:30:04.383Z,14.6
2018-05-08T00:31:24.255Z,14.6
2018-05-08T00:32:54.205Z,14.6
2018-05-08T00:34:16.551Z,14.5
2018-05-08T00:35:41.444Z,14.6
2018-05-08T00:37:03.804Z,14.6
2018-05-08T00:38:23.644Z,14.5
2018-05-08T00:39:43.469Z,14.5
2018-05-08T00:41:08.360Z,14.6
2018-05-08T00:42:28.202Z,14.6
2018-05-08T00:43:50.601Z,14.6
2018-05-08T00:45:10.447Z,14.5
2018-05-08T00:46:35.352Z,14.5
2018-05-08T00:47:55.247Z,14.5
2018-05-08T00:49:20.140Z,14.4
2018-05-08T00:50:47.585Z,14.4
2018-05-08T00:52:10.001Z,14.3
2018-05-08T00:53:34.937Z,14.4
2018-05-08T00:54:54.754Z,14.4
2018-05-08T00:56:19.680Z,14.4
2018-05-08T00:57:39.492Z,14.4
2018-05-08T00:59:09.455Z,14.4
2018-05-08T01:00:36.876Z,14.4
2018-05-08T01:02:11.936Z,14.4
2018-05-08T01:03:31.767Z,14.4
2018-05-08T01:04:51.730Z,14.4
2018-05-08T01:06:21.720Z,14.4
2018-05-08T01:07:41.597Z,14.3
2018-05-08T01:09:01.420Z,14.3
2018-05-08T01:10:26.296Z,14.3
2018-05-08T01:11:46.129Z,14.3
2018-05-08T01:13:05.980Z,14.3
2018-05-08T01:14:28.341Z,14.3
2018-05-08T01:15:50.722Z,14.3
2018-05-08T01:17:10.584Z,14.3
2018-05-08T01:18:30.449Z,14.2
2018-05-08T01:19:50.312Z,14.2
2018-05-08T01:21:10.203Z,14.2
2018-05-08T01:22:32.550Z,14.3
2018-05-08T01:23:54.909Z,14.2
2018-05-08T01:25:14.784Z,14.2
2018-05-08T01:26:37.138Z,14.2
2018-05-08T01:27:57.006Z,14.2
2018-05-08T01:29:16.822Z,14.4
2018-05-08T01:30:39.187Z,14.3
2018-05-08T01:31:59.014Z,14.2
2018-05-08T01:33:21.379Z,14.2
2018-05-08T01:34:43.736Z,14.2
2018-05-08T01:36:03.560Z,14.2
2018-05-08T01:37:23.380Z,14.3
2018-05-08T01:38:45.808Z,14.2
2018-05-08T01:40:05.718Z,14.2
2018-05-08T01:41:40.791Z,14.3
2018-05-08T01:43:08.196Z,14.1
2018-05-08T01:44:35.633Z,14.1
2018-05-08T01:45:55.496Z,14.1
2018-05-08T01:47:22.940Z,14
2018-05-08T01:48:45.337Z,14.1
2018-05-08T01:50:12.755Z,14
2018-05-08T01:51:32.637Z,14
2018-05-08T01:53:00.076Z,14.1
2018-05-08T01:54:30.085Z,14
2018-05-08T01:55:49.923Z,14.2
2018-05-08T01:57:09.746Z,14.2
2018-05-08T01:58:32.152Z,14.2
2018-05-08T01:59:51.975Z,14.2
2018-05-08T02:01:11.817Z,14.1
2018-05-08T02:02:31.635Z,14
2018-05-08T02:03:51.475Z,14.2
2018-05-08T02:05:11.305Z,14.2
2018-05-08T02:06:38.738Z,14.2
2018-05-08T02:08:03.645Z,14.1
2018-05-08T02:09:33.586Z,14.3
2018-05-08T02:10:53.413Z,14
2018-05-08T02:12:13.234Z,14
2018-05-08T02:13:40.729Z,14
2018-05-08T02:15:03.083Z,13.9
2018-05-08T02:16:22.900Z,13.9
2018-05-08T02:17:50.364Z,14
2018-05-08T02:19:22.893Z,13.9
2018-05-08T02:20:42.726Z,14
2018-05-08T02:22:02.552Z,14
2018-05-08T02:23:24.931Z,14
2018-05-08T02:24:44.798Z,13.9
2018-05-08T02:26:04.632Z,14
2018-05-08T02:27:29.650Z,14
2018-05-08T02:28:49.564Z,13.9
2018-05-08T02:30:19.529Z,14
2018-05-08T02:31:57.063Z,14.1
2018-05-08T02:33:19.448Z,13.9
2018-05-08T02:34:49.403Z,14
2018-05-08T02:36:19.358Z,14
2018-05-08T02:37:39.200Z,14
2018-05-08T02:39:06.627Z,13.9
2018-05-08T02:40:26.459Z,14
2018-05-08T02:41:48.817Z,13.9
2018-05-08T02:43:16.281Z,13.9
2018-05-08T02:44:38.635Z,14.1
2018-05-08T02:46:03.520Z,14
2018-05-08T02:47:23.386Z,13.9
2018-05-08T02:48:45.769Z,13.9
2018-05-08T02:50:05.666Z,13.9
2018-05-08T02:51:28.022Z,13.8
2018-05-08T02:52:47.839Z,13.8
2018-05-08T02:54:35.593Z,13.4
2018-05-08T02:55:55.466Z,13.4
2018-05-08T02:57:15.325Z,13.5
2018-05-08T02:58:37.674Z,13.6
2018-05-08T02:59:57.498Z,13.6
2018-05-08T03:01:19.927Z,14
2018-05-08T03:02:39.787Z,13.8
2018-05-08T03:03:59.626Z,13.8
2018-05-08T03:05:19.505Z,13.7
2018-05-08T03:06:39.406Z,13.6
2018-05-08T03:07:59.231Z,13.9
2018-05-08T03:09:19.055Z,13.6
2018-05-08T03:10:38.883Z,14
2018-05-08T03:11:58.711Z,13.9
2018-05-08T03:13:18.534Z,14
2018-05-08T03:14:38.392Z,14
2018-05-08T03:16:00.799Z,14
2018-05-08T03:17:28.230Z,13.9
2018-05-08T03:18:48.103Z,13.9
2018-05-08T03:20:07.949Z,13.9
2018-05-08T03:21:32.879Z,13.8
2018-05-08T03:22:52.698Z,13.9
2018-05-08T03:24:12.548Z,13.7
2018-05-08T03:25:45.068Z,13.7
2018-05-08T03:27:12.477Z,13.7
2018-05-08T03:28:34.855Z,13.7
2018-05-08T03:29:59.763Z,13.6
2018-05-08T03:31:19.603Z,13.2
2018-05-08T03:32:44.497Z,13.2
2018-05-08T03:34:06.856Z,13.3
2018-05-08T03:35:29.239Z,13.2
2018-05-08T03:36:49.104Z,13.3
2018-05-08T03:38:21.575Z,13.3
2018-05-08T03:39:41.457Z,13.2
2018-05-08T03:41:01.320Z,13.2
2018-05-08T03:42:21.197Z,13.2
2018-05-08T03:43:41.072Z,13.1
2018-05-08T03:45:00.886Z,13.1
2018-05-08T03:46:20.709Z,13.2
2018-05-08T03:47:40.534Z,13.1
2018-05-08T03:49:10.502Z,13.2
2018-05-08T03:50:30.399Z,13.1
2018-05-08T03:51:52.750Z,13.1
2018-05-08T03:53:17.667Z,13.1
2018-05-08T03:54:37.511Z,13.2
2018-05-08T03:55:57.329Z,13.1
2018-05-08T03:57:19.783Z,13.1
2018-05-08T03:58:42.142Z,13.1
2018-05-08T04:00:07.043Z,13.2
2018-05-08T04:01:26.871Z,13.2
2018-05-08T04:02:49.217Z,13.2
2018-05-08T04:04:11.624Z,13.2
2018-05-08T04:05:51.719Z,13.2
2018-05-08T04:07:11.534Z,13.2
2018-05-08T04:08:33.877Z,13.2
2018-05-08T04:09:53.695Z,13.2
2018-05-08T04:11:21.115Z,13.4
2018-05-08T04:12:51.064Z,13.3
2018-05-08T04:14:10.896Z,13.4
2018-05-08T04:15:30.796Z,13.9
2018-05-08T04:16:53.210Z,13.9
2018-05-08T04:18:13.046Z,13.8
2018-05-08T04:19:32.861Z,13.7
2018-05-08T04:20:52.704Z,13.9
2018-05-08T04:22:15.111Z,13.7
2018-05-08T04:23:34.962Z,13.7
2018-05-08T04:24:59.922Z,13.7
2018-05-08T04:26:19.784Z,13.7
2018-05-08T04:27:39.639Z,13.7
2018-05-08T04:28:59.487Z,13.7
2018-05-08T04:30:19.321Z,13.5
2018-05-08T04:31:39.183Z,13.7
2018-05-08T04:33:06.646Z,14
2018-05-08T04:34:26.465Z,13.7
2018-05-08T04:35:46.331Z,13.5
2018-05-08T04:37:21.332Z,13.3
2018-05-08T04:38:46.246Z,13.1
2018-05-08T04:40:06.076Z,13.3
2018-05-08T04:41:25.933Z,13.3
2018-05-08T04:42:48.281Z,13.2
2018-05-08T04:44:08.110Z,13.8
2018-05-08T04:45:27.987Z,13.7
2018-05-08T04:46:50.356Z,14
2018-05-08T04:48:10.200Z,13.9
2018-05-08T04:49:32.547Z,13.9
2018-05-08T04:50:54.925Z,13.9
2018-05-08T04:52:14.782Z,13.9
2018-05-08T04:53:37.142Z,13.8
2018-05-08T04:54:56.979Z,13.9
2018-05-08T04:56:16.804Z,14
2018-05-08T04:57:46.748Z,14
2018-05-08T04:59:06.607Z,14
2018-05-08T05:00:31.504Z,14
2018-05-08T05:01:51.327Z,14.1
2018-05-08T05:03:21.277Z,14.1
2018-05-08T05:04:46.156Z,14
2018-05-08T05:06:06.029Z,14
2018-05-08T05:07:36.031Z,14.1
2018-05-08T05:08:58.388Z,14.1
2018-05-08T05:10:20.775Z,14.1
2018-05-08T05:11:45.673Z,14.1
2018-05-08T05:13:05.496Z,14.1
2018-05-08T05:14:25.373Z,14.1
2018-05-08T05:15:47.758Z,13.9
2018-05-08T05:17:12.690Z,13.9
2018-05-08T05:18:32.517Z,14
2018-05-08T05:19:57.460Z,14.1
2018-05-08T05:21:19.854Z,14.2
2018-05-08T05:22:42.205Z,14.1
2018-05-08T05:24:02.076Z,14.3
2018-05-08T05:25:21.904Z,14.4
2018-05-08T05:26:44.291Z,14.5
2018-05-08T05:28:09.215Z,14.5
2018-05-08T05:29:29.089Z,14.5
2018-05-08T05:30:48.915Z,14.4
2018-05-08T05:32:11.351Z,14.5
2018-05-08T05:33:31.211Z,14.5
2018-05-08T05:35:01.212Z,14.6
2018-05-08T05:36:21.047Z,14.5
2018-05-08T05:37:43.427Z,14.6
2018-05-08T05:39:08.302Z,14.7
2018-05-08T05:40:33.191Z,14.7
2018-05-08T05:41:53.016Z,14.7
2018-05-08T05:43:12.832Z,14.7
2018-05-08T05:44:32.706Z,14.7
2018-05-08T05:45:55.069Z,14.7
2018-05-08T05:47:17.414Z,14.7
2018-05-08T05:48:37.230Z,14.7
2018-05-08T05:49:57.086Z,14.6
2018-05-08T05:51:16.903Z,14.8
2018-05-08T05:52:36.757Z,14.6
2018-05-08T05:53:56.602Z,14.7
2018-05-08T05:55:18.962Z,14.8
2018-05-08T05:56:38.789Z,14.8
2018-05-08T05:58:03.730Z,14.8
2018-05-08T05:59:26.140Z,14.9
2018-05-08T06:00:45.963Z,14.8
2018-05-08T06:02:10.858Z,14.8
2018-05-08T06:03:30.730Z,14.8
2018-05-08T06:04:50.592Z,14.9
2018-05-08T06:06:10.431Z,14.9
2018-05-08T06:07:35.320Z,15
2018-05-08T06:08:55.146Z,15
2018-05-08T06:10:15.016Z,14.9
2018-05-08T06:11:34.855Z,14.9
2018-05-08T06:12:57.223Z,15
2018-05-08T06:14:17.044Z,15
2018-05-08T06:15:36.860Z,15
2018-05-08T06:16:59.245Z,15
2018-05-08T06:18:24.207Z,15
2018-05-08T06:19:44.114Z,15
2018-05-08T06:21:03.959Z,15
2018-05-08T06:22:23.794Z,15.1
2018-05-08T06:23:51.230Z,15.1
2018-05-08T06:25:13.577Z,15.1
2018-05-08T06:26:33.496Z,15
2018-05-08T06:27:53.334Z,15
2018-05-08T06:29:13.205Z,15
2018-05-08T06:30:35.558Z,15
2018-05-08T06:31:55.415Z,15.1
2018-05-08T06:33:15.263Z,15.1
2018-05-08T06:34:40.137Z,15.4
2018-05-08T06:35:59.970Z,15.3
2018-05-08T06:37:19.797Z,15.4
2018-05-08T06:38:39.648Z,15.4
2018-05-08T06:40:02.049Z,15.4
2018-05-08T06:41:21.881Z,15.5
2018-05-08T06:42:44.257Z,15.5
2018-05-08T06:44:09.189Z,15.5
2018-05-08T06:45:29.085Z,15.5
2018-05-08T06:46:48.932Z,15.5
2018-05-08T06:48:08.820Z,15.4
2018-05-08T06:49:31.169Z,15.4
2018-05-08T06:50:51.037Z,15.4
2018-05-08T06:52:10.910Z,15.5
2018-05-08T06:53:30.789Z,15.6
2018-05-08T06:54:53.161Z,15.6
2018-05-08T06:56:18.137Z,15.6
2018-05-08T06:57:38.014Z,15.6
2018-05-08T06:59:07.980Z,15.8
2018-05-08T07:00:30.387Z,15.8
2018-05-08T07:01:52.749Z,15.8
2018-05-08T07:03:12.570Z,15.8
2018-05-08T07:04:34.982Z,15.9
2018-05-08T07:05:57.342Z,15.8
2018-05-08T07:07:19.742Z,15.9
2018-05-08T07:08:44.663Z,15.9
2018-05-08T07:10:04.518Z,16
2018-05-08T07:11:42.114Z,15.9
2018-05-08T07:13:01.982Z,15.9
2018-05-08T07:14:24.411Z,15.9
2018-05-08T07:15:49.467Z,15.8
2018-05-08T07:17:11.838Z,15.9
2018-05-08T07:18:31.668Z,15.8
2018-05-08T07:19:51.528Z,16
2018-05-08T07:21:11.391Z,16
2018-05-08T07:22:36.276Z,16.1
2018-05-08T07:24:06.339Z,16
2018-05-08T07:25:26.183Z,16.1
2018-05-08T07:26:46.038Z,16
2018-05-08T07:28:08.386Z,16
2018-05-08T07:29:35.862Z,15.9
2018-05-08T07:31:00.845Z,15.9
2018-05-08T07:32:20.705Z,15.9
2018-05-08T07:33:45.618Z,15.9
2018-05-08T07:35:05.446Z,15.8
2018-05-08T07:36:25.271Z,15.9
2018-05-08T07:37:45.102Z,16
2018-05-08T07:39:04.928Z,15.9
2018-05-08T07:40:24.797Z,16
2018-05-08T07:41:44.620Z,16
2018-05-08T07:43:04.507Z,16
2018-05-08T07:44:29.472Z,16.1
2018-05-08T07:45:49.330Z,16.1
2018-05-08T07:47:09.184Z,16.2
2018-05-08T07:48:34.106Z,16
2018-05-08T07:49:53.978Z,16
2018-05-08T07:51:13.831Z,15.7
2018-05-08T07:52:43.801Z,15.9
2018-05-08T07:54:03.668Z,16
2018-05-08T07:55:23.517Z,16
2018-05-08T07:56:48.405Z,16.1
2018-05-08T07:58:13.338Z,16
2018-05-08T07:59:33.203Z,16.1
2018-05-08T08:00:53.031Z,16.1
2018-05-08T08:02:33.122Z,16.2
2018-05-08T08:03:52.943Z,16.2
2018-05-08T08:05:15.291Z,16.1
2018-05-08T08:06:40.235Z,16.2
2018-05-08T08:08:00.095Z,16.2
2018-05-08T08:09:24.979Z,16.2
2018-05-08T08:10:47.355Z,16.2
2018-05-08T08:12:07.175Z,16.3
2018-05-08T08:13:27.048Z,16.4
2018-05-08T08:14:49.428Z,16.4
2018-05-08T08:16:11.790Z,16.4
2018-05-08T08:17:34.170Z,16.4
2018-05-08T08:18:56.531Z,16.4
2018-05-08T08:20:16.376Z,16.3
2018-05-08T08:21:36.201Z,16.2
2018-05-08T08:22:58.607Z,16.2
2018-05-08T08:24:18.461Z,16.2
2018-05-08T08:25:40.850Z,16.3
2018-05-08T08:27:00.680Z,16.3
2018-05-08T08:28:25.568Z,16.3
2018-05-08T08:29:50.554Z,16.2
2018-05-08T08:31:12.935Z,16.3
2018-05-08T08:32:32.812Z,16.3
2018-05-08T08:33:55.187Z,16.3
2018-05-08T08:35:15.040Z,16.3
2018-05-08T08:36:34.907Z,16.3
2018-05-08T08:38:02.316Z,16.3
2018-05-08T08:39:22.130Z,16.1
2018-05-08T08:40:41.950Z,16.1
2018-05-08T08:42:01.770Z,16.1
2018-05-08T08:43:21.683Z,16.2
2018-05-08T08:44:41.502Z,16.2
2018-05-08T08:46:01.365Z,16.2
2018-05-08T08:47:21.185Z,16.2
2018-05-08T08:48:48.678Z,16.2
2018-05-08T08:50:08.526Z,16.3
2018-05-08T08:51:28.376Z,16.4
2018-05-08T08:52:50.730Z,16.3
2018-05-08T08:54:15.624Z,16.4
2018-05-08T08:55:35.500Z,16.5
2018-05-08T08:56:55.324Z,16.4
2018-05-08T08:58:15.143Z,16.4
2018-05-08T08:59:34.993Z,16.4
2018-05-08T09:00:54.864Z,16.4
2018-05-08T09:02:17.271Z,16.4
2018-05-08T09:03:37.096Z,16.4
2018-05-08T09:04:56.917Z,16.4
2018-05-08T09:06:29.446Z,16.5
2018-05-08T09:07:51.817Z,16.4
2018-05-08T09:09:11.655Z,16.4
2018-05-08T09:10:36.530Z,16.7
2018-05-08T09:11:56.354Z,16.7
2018-05-08T09:13:16.190Z,16.5
2018-05-08T09:14:36.081Z,16.5
2018-05-08T09:15:55.958Z,16.5
2018-05-08T09:17:23.447Z,16.5
2018-05-08T09:18:43.300Z,16.5
2018-05-08T09:20:05.662Z,16.5
2018-05-08T09:21:25.487Z,16.5
2018-05-08T09:22:45.317Z,16.4
2018-05-08T09:24:05.151Z,16.4
2018-05-08T09:25:24.984Z,16.4
2018-05-08T09:26:47.382Z,16.5
2018-05-08T09:28:09.764Z,16.5
2018-05-08T09:29:37.200Z,16.5
2018-05-08T09:30:57.042Z,16.5
2018-05-08T09:32:16.888Z,16.5
2018-05-08T09:33:36.744Z,16.6
2018-05-08T09:34:59.142Z,16.6
2018-05-08T09:36:21.494Z,16.6
2018-05-08T09:37:43.914Z,16.5
2018-05-08T09:39:03.766Z,16.5
2018-05-08T09:40:23.624Z,16.6
2018-05-08T09:41:43.529Z,16.6
2018-05-08T09:43:05.930Z,16.6
2018-05-08T09:44:30.804Z,16.6
2018-05-08T09:45:58.232Z,16.7
2018-05-08T09:47:20.586Z,16.7
2018-05-08T09:48:40.408Z,16.5
2018-05-08T09:50:02.790Z,16.5
2018-05-08T09:51:27.717Z,16.5
2018-05-08T09:52:47.535Z,16.5
2018-05-08T09:54:09.921Z,16.6
2018-05-08T09:55:32.294Z,16.6
2018-05-08T09:56:59.739Z,16.7
2018-05-08T09:58:29.691Z,16.4
2018-05-08T09:59:49.517Z,16.5
2018-05-08T10:01:11.885Z,16.4
2018-05-08T10:02:31.773Z,16.7
2018-05-08T10:03:51.629Z,16.7
2018-05-08T10:05:11.457Z,16.8
2018-05-08T10:06:38.937Z,16.8
2018-05-08T10:08:06.385Z,16.6
2018-05-08T10:09:26.268Z,16.6
2018-05-08T10:10:46.090Z,16.5
2018-05-08T10:12:05.939Z,16.4
2018-05-08T10:13:25.762Z,16.7
2018-05-08T10:14:50.649Z,16.5
2018-05-08T10:16:20.597Z,16.5
2018-05-08T10:17:40.423Z,16.9
2018-05-08T10:19:00.327Z,16.9
2018-05-08T10:20:20.156Z,16.8
2018-05-08T10:21:45.046Z,16.7
2018-05-08T10:23:04.925Z,16.7
2018-05-08T10:24:29.808Z,16.8
2018-05-08T10:25:49.675Z,16.9
2018-05-08T10:27:09.502Z,17
2018-05-08T10:28:29.326Z,16.9
2018-05-08T10:29:49.182Z,17.1
2018-05-08T10:31:14.068Z,16.9
2018-05-08T10:32:44.027Z,17.1
2018-05-08T10:34:21.561Z,17.1
2018-05-08T10:35:41.407Z,17
2018-05-08T10:37:01.261Z,17
2018-05-08T10:38:26.157Z,17.1
2018-05-08T10:39:51.047Z,17
2018-05-08T10:41:10.861Z,18.4
2018-05-08T10:42:33.244Z,18.4
2018-05-08T10:43:53.100Z,18.3
2018-05-08T10:45:20.529Z,18.3
2018-05-08T10:46:40.409Z,18.3
2018-05-08T10:48:05.286Z,18.2
2018-05-08T10:49:25.110Z,18.2
2018-05-08T10:50:47.495Z,18.2
2018-05-08T10:52:07.323Z,18.2
2018-05-08T10:53:27.155Z,18.3
2018-05-08T10:54:47.106Z,18.2
2018-05-08T10:56:06.979Z,18.2
2018-05-08T10:57:26.803Z,18.2
2018-05-08T10:58:46.669Z,18
2018-05-08T11:00:06.536Z,18
2018-05-08T11:01:26.360Z,17.9
2018-05-08T11:02:51.245Z,17.8
2018-05-08T11:04:11.074Z,17.8
2018-05-08T11:05:30.967Z,17.8
2018-05-08T11:06:50.812Z,17.8
2018-05-08T11:08:10.638Z,17.9
2018-05-08T11:09:40.594Z,17.9
2018-05-08T11:11:00.452Z,17.7
2018-05-08T11:12:20.402Z,17.9
2018-05-08T11:13:40.233Z,17.9
2018-05-08T11:15:05.167Z,18
2018-05-08T11:16:27.529Z,17.8
2018-05-08T11:17:47.407Z,17.8
2018-05-08T11:19:09.844Z,17.7
2018-05-08T11:20:34.765Z,17.8
2018-05-08T11:21:54.635Z,17.9
2018-05-08T11:23:14.490Z,17.8
2018-05-08T11:24:34.324Z,17.9
2018-05-08T11:25:54.199Z,17.9
2018-05-08T11:27:16.596Z,17.8
2018-05-08T11:28:36.418Z,17.8
2018-05-08T11:29:56.282Z,17.9
2018-05-08T11:31:23.690Z,17.9
2018-05-08T11:32:43.540Z,17.9
2018-05-08T11:34:03.401Z,17.9
2018-05-08T11:35:23.280Z,17.9
2018-05-08T11:36:48.185Z,17.9
2018-05-08T11:38:13.142Z,17.9
2018-05-08T11:39:35.499Z,17.9
2018-05-08T11:40:55.321Z,17.9
2018-05-08T11:42:15.139Z,17.9
2018-05-08T11:43:37.527Z,17.9
2018-05-08T11:44:59.905Z,17.7
2018-05-08T11:46:19.731Z,17.7
2018-05-08T11:47:39.550Z,17.9
2018-05-08T11:48:59.373Z,17.8
2018-05-08T11:50:21.736Z,17.9
2018-05-08T11:51:41.562Z,17.1
2018-05-08T11:53:06.467Z,17.2
2018-05-08T11:54:26.338Z,17.4
2018-05-08T11:55:56.280Z,17.2
2018-05-08T11:57:21.188Z,17.2
2018-05-08T11:58:48.663Z,17.7
2018-05-08T12:00:13.569Z,17.7
2018-05-08T12:01:33.450Z,17.8
2018-05-08T12:02:53.331Z,17.9
2018-05-08T12:04:13.176Z,18
2018-05-08T12:05:33.029Z,18.3
2018-05-08T12:06:55.374Z,18.6
2018-05-08T12:08:17.760Z,19.2
2018-05-08T12:09:37.608Z,20
2018-05-08T12:11:00.016Z,20.6
2018-05-08T12:12:22.382Z,21.2
2018-05-08T12:13:44.748Z,21.6
2018-05-08T12:15:04.568Z,21.9
2018-05-08T12:16:24.391Z,22.2
2018-05-08T12:17:46.743Z,22.3
2018-05-08T12:19:14.230Z,22.6
2018-05-08T12:20:36.638Z,22.3
2018-05-08T12:22:09.111Z,22.5
2018-05-08T12:23:33.998Z,22.3
2018-05-08T12:24:53.848Z,22.4
2018-05-08T12:26:16.213Z,22.7
2018-05-08T12:27:36.075Z,22.7
2018-05-08T12:29:06.025Z,22.4
2018-05-08T12:30:25.906Z,22.4
2018-05-08T12:31:45.732Z,21.9
2018-05-08T12:33:05.557Z,22
2018-05-08T12:34:27.964Z,22
2018-05-08T12:35:55.396Z,21.9
2018-05-08T12:37:15.223Z,21.7
2018-05-08T12:38:37.607Z,21.6
2018-05-08T12:39:57.503Z,21.2
2018-05-08T12:41:24.919Z,20.8
2018-05-08T12:42:49.862Z,20.6
2018-05-08T12:44:14.760Z,20.6
2018-05-08T12:45:34.621Z,20.5
2018-05-08T12:46:54.439Z,20.3
2018-05-08T12:48:19.343Z,20.2
2018-05-08T12:49:41.734Z,20.2
2018-05-08T12:51:04.096Z,20
2018-05-08T12:52:44.207Z,20.1
2018-05-08T12:54:06.558Z,20
2018-05-08T12:55:26.384Z,20
2018-05-08T12:56:46.204Z,20
2018-05-08T12:58:06.022Z,19.9
2018-05-08T12:59:25.869Z,19.8
2018-05-08T13:00:48.224Z,19.8
2018-05-08T13:02:08.109Z,19.7
2018-05-08T13:03:28.015Z,19.7
2018-05-08T13:04:47.917Z,19.7
2018-05-08T13:06:07.773Z,19.7
2018-05-08T13:07:30.154Z,19.7
2018-05-08T13:09:00.111Z,19.7
2018-05-08T13:10:19.937Z,19.8
2018-05-08T13:11:44.866Z,19.7
2018-05-08T13:13:04.711Z,19.7
2018-05-08T13:14:24.581Z,19.6
2018-05-08T13:15:44.410Z,19.6
2018-05-08T13:17:06.763Z,19.6
2018-05-08T13:18:26.585Z,19.5
2018-05-08T13:19:46.423Z,19.5
2018-05-08T13:21:06.297Z,19.5
2018-05-08T13:22:31.187Z,19.4
2018-05-08T13:23:51.043Z,19.5
2018-05-08T13:25:13.389Z,19.5
2018-05-08T13:26:33.210Z,19.5
2018-05-08T13:27:53.092Z,19.5
2018-05-08T13:29:15.444Z,19.1
2018-05-08T13:30:40.344Z,19.7
2018-05-08T13:32:00.221Z,19.7
2018-05-08T13:33:22.655Z,19.7
2018-05-08T13:34:45.004Z,19.8
2018-05-08T13:36:04.831Z,19.8
2018-05-08T13:37:24.665Z,19.8
2018-05-08T13:38:52.096Z,19.8
2018-05-08T13:40:11.957Z,19.8
2018-05-08T13:41:34.324Z,19.9
2018-05-08T13:43:04.280Z,20
2018-05-08T13:44:29.187Z,20
2018-05-08T13:45:49.017Z,20
2018-05-08T13:47:16.452Z,20
2018-05-08T13:48:46.407Z,20.1
2018-05-08T13:50:06.242Z,20.1
2018-05-08T13:51:38.736Z,20.1
2018-05-08T13:53:08.703Z,20.2
2018-05-08T13:54:31.088Z,20.2
2018-05-08T13:55:50.911Z,20.3
2018-05-08T13:57:13.278Z,20.3
2018-05-08T13:58:33.155Z,20.4
2018-05-08T13:59:53.018Z,20.4
2018-05-08T14:01:22.991Z,20.5
2018-05-08T14:02:42.839Z,20.5
2018-05-08T14:04:02.730Z,20.4
2018-05-08T14:05:22.579Z,20.4
2018-05-08T14:06:42.555Z,20.5
2018-05-08T14:08:02.422Z,20.6
2018-05-08T14:09:22.323Z,20.7
2018-05-08T14:10:42.188Z,20.7
2018-05-08T14:12:02.065Z,20.7
2018-05-08T14:13:21.930Z,20.7
2018-05-08T14:14:46.808Z,20.9
2018-05-08T14:16:14.249Z,20.9
2018-05-08T14:17:36.610Z,21
2018-05-08T14:18:56.435Z,21
2018-05-08T14:20:23.841Z,21.1
2018-05-08T14:21:46.238Z,21.1
2018-05-08T14:23:06.064Z,21.1
2018-05-08T14:24:28.448Z,21.2
2018-05-08T14:25:53.365Z,21.3
2018-05-08T14:27:13.186Z,21.5
2018-05-08T14:28:35.547Z,21.5
2018-05-08T14:29:57.971Z,21.6
2018-05-08T14:31:17.893Z,21.6
2018-05-08T14:32:37.757Z,21.8
2018-05-08T14:33:57.657Z,21.7
2018-05-08T14:35:17.516Z,21.7
2018-05-08T14:36:42.428Z,21.8
2018-05-08T14:38:02.338Z,21.9
2018-05-08T14:39:22.197Z,21.9
2018-05-08T14:40:42.097Z,21.7
2018-05-08T14:42:09.515Z,21.4
2018-05-08T14:43:34.449Z,21.3
2018-05-08T14:44:59.348Z,20.9
2018-05-08T14:46:24.244Z,20.7
2018-05-08T14:47:46.601Z,20.6
2018-05-08T14:49:06.475Z,20.6
2018-05-08T14:50:26.322Z,20.5
2018-05-08T14:51:46.181Z,20.1
2018-05-08T14:53:11.108Z,20.3
2018-05-08T14:54:30.978Z,20.3
2018-05-08T14:55:55.919Z,20.3
2018-05-08T14:57:15.755Z,20.2
2018-05-08T14:58:35.582Z,20.4
2018-05-08T14:59:55.438Z,20.5
2018-05-08T15:01:27.905Z,20.4
2018-05-08T15:02:47.782Z,20.3
2018-05-08T15:04:07.626Z,19.6
2018-05-08T15:05:27.471Z,20.2
2018-05-08T15:06:47.370Z,19.9
2018-05-08T15:08:09.724Z,19.8
2018-05-08T15:09:29.562Z,19.9
2018-05-08T15:10:49.394Z,19.8
2018-05-08T15:12:09.242Z,19.8
2018-05-08T15:13:29.073Z,19.8
2018-05-08T15:14:48.898Z,19.7
2018-05-08T15:16:13.812Z,19.6
2018-05-08T15:17:33.648Z,19.6
2018-05-08T15:18:55.989Z,19.6
2018-05-08T15:20:18.348Z,19.6
2018-05-08T15:21:40.770Z,19.6
2018-05-08T15:23:00.666Z,19.5
2018-05-08T15:24:20.486Z,19.6
2018-05-08T15:25:40.344Z,19.5
2018-05-08T15:27:07.756Z,19.5
2018-05-08T15:28:30.121Z,19.4
2018-05-08T15:29:49.946Z,19.5
2018-05-08T15:31:09.799Z,19.4
2018-05-08T15:32:37.304Z,19.4
2018-05-08T15:34:02.222Z,19.4
2018-05-08T15:35:24.570Z,19.4
2018-05-08T15:36:46.975Z,19.4
2018-05-08T15:38:06.832Z,18.8
2018-05-08T15:39:26.713Z,18.8
2018-05-08T15:40:46.552Z,18.8
2018-05-08T15:42:06.418Z,18.8
2018-05-08T15:43:28.831Z,18.7
2018-05-08T15:44:48.707Z,18.8
2018-05-08T15:46:16.132Z,18.7
2018-05-08T15:47:35.962Z,18.6
2018-05-08T15:48:55.781Z,18.6
2018-05-08T15:50:15.616Z,18.6
2018-05-08T15:51:40.493Z,18.6
2018-05-08T15:53:00.305Z,18.5
2018-05-08T15:54:20.122Z,18.4
2018-05-08T15:55:39.940Z,17.9
2018-05-08T15:57:09.912Z,17.7
2018-05-08T15:58:29.731Z,17.6
2018-05-08T15:59:54.646Z,17.9
2018-05-08T16:01:19.548Z,17.6
2018-05-08T16:02:41.935Z,18.3
2018-05-08T16:04:09.356Z,18.8
2018-05-08T16:05:31.743Z,18.6
2018-05-08T16:06:51.618Z,17.2
2018-05-08T16:08:11.549Z,17
2018-05-08T16:09:31.387Z,18.7
2018-05-08T16:10:51.274Z,18.8
2018-05-08T16:12:11.175Z,18.7
2018-05-08T16:13:31.019Z,18.7
2018-05-08T16:14:50.844Z,18.5
2018-05-08T16:16:10.670Z,18.6
2018-05-08T16:17:35.603Z,18.4
2018-05-08T16:18:57.966Z,18.6
2018-05-08T16:20:20.315Z,18.6
2018-05-08T16:21:40.136Z,18.5
2018-05-08T16:23:02.489Z,18.2
2018-05-08T16:24:27.391Z,18.2
2018-05-08T16:25:47.245Z,18
2018-05-08T16:27:09.627Z,16.6
2018-05-08T16:28:37.066Z,18
2018-05-08T16:29:56.925Z,18.1
2018-05-08T16:31:21.837Z,18
2018-05-08T16:32:44.200Z,18
2018-05-08T16:34:06.639Z,18.2
2018-05-08T16:35:34.054Z,18.2
2018-05-08T16:36:56.457Z,18
2018-05-08T16:38:16.336Z,17.9
2018-05-08T16:39:36.335Z,17.8
2018-05-08T16:40:58.733Z,17.8
2018-05-08T16:42:21.089Z,17.9
2018-05-08T16:43:40.992Z,17.6
2018-05-08T16:45:00.865Z,18
2018-05-08T16:46:25.804Z,17.9
2018-05-08T16:47:45.678Z,18.2
2018-05-08T16:49:05.541Z,18
2018-05-08T16:50:25.371Z,17.9
2018-05-08T16:51:45.204Z,18.1
2018-05-08T16:53:07.563Z,17.6
2018-05-08T16:54:29.981Z,17.7
2018-05-08T16:55:54.873Z,17.6
2018-05-08T16:57:17.246Z,17.7
2018-05-08T16:58:49.722Z,17.4
2018-05-08T17:00:09.550Z,17.5
2018-05-08T17:01:29.396Z,17.4
2018-05-08T17:02:49.225Z,17.5
2018-05-08T17:04:09.108Z,17.4
2018-05-08T17:05:28.930Z,17.5
2018-05-08T17:06:51.318Z,17.6
2018-05-08T17:08:13.675Z,17.3
2018-05-08T17:09:36.040Z,17.4
2018-05-08T17:11:01.009Z,17.4
2018-05-08T17:12:20.889Z,17.4
2018-05-08T17:13:40.742Z,17.5
2018-05-08T17:15:05.628Z,17.4
2018-05-08T17:16:28.034Z,17.4
2018-05-08T17:17:47.857Z,17.4
2018-05-08T17:19:07.777Z,17.3
2018-05-08T17:20:30.134Z,16.7
2018-05-08T17:21:49.995Z,16.7
2018-05-08T17:23:09.864Z,16.7
2018-05-08T17:24:34.756Z,16.7
2018-05-08T17:25:57.130Z,16.8
2018-05-08T17:27:22.059Z,16.8
2018-05-08T17:28:41.931Z,16.8
2018-05-08T17:30:01.835Z,16.8
2018-05-08T17:31:21.689Z,16.8
2018-05-08T17:32:44.059Z,16.8
2018-05-08T17:34:14.024Z,16.8
2018-05-08T17:35:33.906Z,16.7
2018-05-08T17:36:53.784Z,16.7
2018-05-08T17:38:13.653Z,16.6
2018-05-08T17:39:33.483Z,16.4
2018-05-08T17:40:53.317Z,16.4
2018-05-08T17:42:13.131Z,16.4
2018-05-08T17:43:38.016Z,16.4
2018-05-08T17:44:57.886Z,16.4
2018-05-08T17:46:25.316Z,16.4
2018-05-08T17:47:45.217Z,16.4
2018-05-08T17:49:07.621Z,15.8
2018-05-08T17:50:32.507Z,15.6
2018-05-08T17:51:54.865Z,16
2018-05-08T17:53:14.711Z,16.7
2018-05-08T17:54:34.559Z,16.6
2018-05-08T17:55:54.386Z,16.6
2018-05-08T17:57:16.825Z,16
2018-05-08T17:58:41.730Z,14.7
2018-05-08T18:00:01.586Z,14.9
2018-05-08T18:01:21.450Z,16
2018-05-08T18:02:41.350Z,16.2
2018-05-08T18:04:01.328Z,16.5
2018-05-08T18:05:23.706Z,16.4
2018-05-08T18:06:43.532Z,16.4
2018-05-08T18:08:03.354Z,16.4
2018-05-08T18:09:23.175Z,16.4
2018-05-08T18:10:43.001Z,16.5
2018-05-08T18:12:12.946Z,16.4
2018-05-08T18:13:32.768Z,16.4
2018-05-08T18:14:52.604Z,16.4
2018-05-08T18:16:12.444Z,16.4
2018-05-08T18:17:34.842Z,16.4
2018-05-08T18:18:54.784Z,16.4
2018-05-08T18:20:17.143Z,16.4
2018-05-08T18:21:37.055Z,16.4